Time;durP1;ratioP1;P1;durP2;ratioP2;P2;SDS_P1;SDS_P2;PMS_P1;PMS_P2;Temp;Humidity;BMP_temperature;BMP_pressure;BME280_temperature;BME280_humidity;BME280_pressure;Samples;Min_cycle;Max_cycle;Signal;HPM_P1;HPM_P2
2022/01/10 00:00:23;;;;;;;38.90;16.85;;;3.00;99.90;;;;;;5076705;28;20443;-59
2022/01/10 00:02:54;;;;;;;39.10;15.48;;;2.90;99.90;;;;;;5076773;28;20285;-60
2022/01/10 00:05:21;;;;;;;31.52;16.08;;;2.70;99.90;;;;;;5076618;28;20047;-59
2022/01/10 00:07:47;;;;;;;27.58;15.65;;;2.80;99.90;;;;;;5075724;28;20119;-58
2022/01/10 00:10:13;;;;;;;35.60;16.70;;;2.80;99.90;;;;;;5075640;28;20108;-59
2022/01/10 00:12:39;;;;;;;29.10;15.88;;;2.70;99.90;;;;;;5075676;28;20032;-60
2022/01/10 00:15:07;;;;;;;25.50;14.65;;;2.80;99.90;;;;;;5075720;28;20037;-60
2022/01/10 00:17:32;;;;;;;27.75;14.68;;;2.70;99.90;;;;;;5076191;28;20064;-59
2022/01/10 00:19:58;;;;;;;26.65;14.48;;;2.70;99.90;;;;;;5076334;28;20439;-59
2022/01/10 00:22:26;;;;;;;25.23;14.93;;;2.60;99.90;;;;;;5076183;28;20035;-59
2022/01/10 00:24:52;;;;;;;35.20;15.55;;;2.70;99.90;;;;;;5075405;28;20033;-59
2022/01/10 00:27:18;;;;;;;34.83;16.52;;;2.80;99.90;;;;;;5076227;28;20151;-59
2022/01/10 00:29:43;;;;;;;26.88;16.08;;;3.00;99.90;;;;;;5076333;28;20182;-58
2022/01/10 00:32:09;;;;;;;34.60;16.00;;;3.10;99.90;;;;;;5076191;28;20297;-59
2022/01/10 00:34:35;;;;;;;34.60;16.20;;;2.90;99.90;;;;;;5076294;28;20032;-59
2022/01/10 00:37:01;;;;;;;27.83;14.98;;;2.80;99.90;;;;;;5075376;28;20044;-59
2022/01/10 00:39:27;;;;;;;30.17;15.43;;;2.70;99.90;;;;;;5079900;28;20047;-59
2022/01/10 00:41:55;;;;;;;24.98;14.00;;;2.70;99.90;;;;;;5079975;28;20107;-60
2022/01/10 00:44:25;;;;;;;24.05;13.85;;;2.60;99.90;;;;;;5079145;28;20040;-59
2022/01/10 00:46:52;;;;;;;30.10;15.60;;;2.50;99.90;;;;;;5078974;28;20350;-59
2022/01/10 00:49:18;;;;;;;28.95;14.75;;;2.50;99.90;;;;;;5079703;28;20042;-59
2022/01/10 00:51:44;;;;;;;30.10;14.35;;;2.50;99.90;;;;;;5079782;28;20439;-59
2022/01/10 00:54:10;;;;;;;27.17;15.60;;;2.50;99.90;;;;;;5079629;28;20384;-60
2022/01/10 00:56:36;;;;;;;26.65;14.90;;;2.50;99.90;;;;;;5078815;28;20261;-59
2022/01/10 00:59:02;;;;;;;22.85;13.93;;;2.60;99.90;;;;;;5078809;28;20047;-59
2022/01/10 01:01:28;;;;;;;27.15;14.75;;;2.50;99.90;;;;;;5078645;28;20025;-59
2022/01/10 01:03:55;;;;;;;28.02;15.00;;;2.50;99.90;;;;;;5078678;28;20089;-59
2022/01/10 01:06:20;;;;;;;28.15;15.48;;;2.50;99.90;;;;;;5079404;28;20162;-59
2022/01/10 01:08:47;;;;;;;28.85;15.00;;;2.50;99.90;;;;;;5079958;28;20410;-59
2022/01/10 01:12:01;;;;;;;26.23;13.77;;;2.50;99.90;;;;;;5079374;28;20072;-59
2022/01/10 01:14:07;;;;;;;26.73;14.02;;;2.40;99.90;;;;;;5078839;28;20052;-59
2022/01/10 01:24:14;;;;;;;27.92;14.80;;;2.30;99.90;;;;;;5078364;28;20032;-59
2022/01/10 01:26:43;;;;;;;29.83;15.18;;;2.30;99.90;;;;;;5079075;28;20024;-58
2022/01/10 01:29:12;;;;;;;29.95;15.40;;;2.30;99.90;;;;;;5078302;28;20111;-59
2022/01/10 01:31:39;;;;;;;31.42;14.55;;;2.20;99.90;;;;;;5078194;28;20090;-59
2022/01/10 01:34:05;;;;;;;26.02;13.85;;;2.20;99.90;;;;;;5079005;28;20090;-59
2022/01/10 01:36:32;;;;;;;26.60;14.48;;;2.20;99.90;;;;;;5078687;28;20123;-59
2022/01/10 01:38:59;;;;;;;28.23;14.63;;;2.20;99.90;;;;;;5061637;28;20090;-59
2022/01/10 01:43:59;;;;;;;35.42;15.23;;;2.10;99.90;;;;;;5062373;28;20043;-59
2022/01/10 01:46:25;;;;;;;33.53;15.30;;;2.20;99.90;;;;;;5077801;28;20093;-59
2022/01/10 01:48:52;;;;;;;31.00;15.00;;;2.20;99.90;;;;;;5077889;28;20140;-59
2022/01/10 01:51:23;;;;;;;24.42;14.18;;;2.20;99.90;;;;;;5061318;28;20411;-59
2022/01/10 01:53:49;;;;;;;32.92;15.05;;;2.20;99.90;;;;;;5077776;28;20056;-59
2022/01/10 01:56:16;;;;;;;26.42;15.18;;;2.20;99.90;;;;;;5078494;28;20036;-58
2022/01/10 01:58:43;;;;;;;27.85;15.25;;;2.40;99.90;;;;;;5061058;28;20117;-59
2022/01/10 02:01:10;;;;;;;32.60;14.90;;;2.30;99.90;;;;;;5061209;28;20101;-59
2022/01/10 02:03:41;;;;;;;26.17;14.60;;;2.20;99.90;;;;;;5078306;28;20094;-59
2022/01/10 02:06:09;;;;;;;27.55;14.82;;;2.20;99.90;;;;;;5077636;28;20062;-59
2022/01/10 02:08:38;;;;;;;27.77;14.43;;;2.10;99.90;;;;;;5078229;28;20025;-59
2022/01/10 02:11:06;;;;;;;27.92;13.80;;;2.10;99.90;;;;;;5077436;28;20089;-59
2022/01/10 02:13:32;;;;;;;26.25;14.43;;;2.00;99.90;;;;;;5077330;28;20384;-59
2022/01/10 02:16:03;;;;;;;29.05;14.50;;;2.10;99.90;;;;;;5077367;28;20043;-59
2022/01/10 02:18:34;;;;;;;32.03;15.13;;;2.00;99.90;;;;;;5077302;28;20028;-59
2022/01/10 02:21:03;;;;;;;27.55;14.30;;;2.00;99.90;;;;;;5077288;28;20093;-59
2022/01/10 02:23:35;;;;;;;29.25;15.88;;;2.10;99.90;;;;;;5078351;28;20040;-59
2022/01/10 02:26:06;;;;;;;30.63;16.35;;;2.10;99.90;;;;;;5077146;28;20414;-59
2022/01/10 02:28:34;;;;;;;26.08;14.10;;;2.10;99.90;;;;;;5077138;28;20024;-59
2022/01/10 02:31:00;;;;;;;27.73;14.55;;;2.10;99.90;;;;;;5077070;28;20471;-59
2022/01/10 02:33:29;;;;;;;32.05;14.90;;;2.00;99.90;;;;;;5077014;28;20299;-59
2022/01/10 02:36:09;;;;;;;26.30;14.90;;;2.00;99.90;;;;;;5077852;28;20054;-59
2022/01/10 02:38:35;;;;;;;30.00;15.32;;;2.10;99.90;;;;;;5077489;28;20293;-59
2022/01/10 02:41:02;;;;;;;29.27;15.55;;;2.10;99.90;;;;;;5076896;28;20058;-59
2022/01/10 02:43:28;;;;;;;25.65;14.82;;;2.10;99.90;;;;;;5076821;28;20392;-59
2022/01/10 02:45:56;;;;;;;27.73;16.15;;;1.90;99.90;;;;;;5077461;28;20060;-58
2022/01/10 02:48:22;;;;;;;26.33;15.90;;;2.00;99.90;;;;;;5076721;28;20043;-60
2022/01/10 02:50:50;;;;;;;33.83;15.48;;;2.10;99.90;;;;;;5077710;28;20035;-60
2022/01/10 02:53:15;;;;;;;27.70;15.13;;;2.00;99.90;;;;;;5076547;28;20025;-59
2022/01/10 02:55:41;;;;;;;29.67;15.93;;;2.00;99.90;;;;;;5076554;28;20098;-60
2022/01/10 02:58:09;;;;;;;34.35;16.35;;;2.10;99.90;;;;;;5076548;28;20103;-60
2022/01/10 03:00:35;;;;;;;38.63;16.13;;;2.20;99.90;;;;;;5076461;28;20044;-60
2022/01/10 03:03:06;;;;;;;31.27;16.08;;;2.20;99.90;;;;;;5075716;28;20025;-59
2022/01/10 03:05:33;;;;;;;28.38;15.60;;;2.20;99.90;;;;;;5076308;28;20450;-60
2022/01/10 03:08:02;;;;;;;34.50;16.05;;;2.10;99.90;;;;;;5077171;28;20021;-59
2022/01/10 03:10:29;;;;;;;27.60;15.15;;;2.10;99.90;;;;;;5076467;28;20043;-59
2022/01/10 03:12:56;;;;;;;32.10;15.73;;;2.10;99.90;;;;;;5076298;28;20025;-60
2022/01/10 03:15:22;;;;;;;27.02;15.07;;;2.10;99.90;;;;;;5077037;28;20173;-60
2022/01/10 03:17:49;;;;;;;26.05;14.93;;;2.00;99.90;;;;;;5076225;28;20041;-60
2022/01/10 03:20:15;;;;;;;31.95;15.90;;;2.00;99.90;;;;;;5076249;28;20040;-60
2022/01/10 03:22:40;;;;;;;28.77;14.30;;;2.20;99.90;;;;;;5076114;28;20047;-60
2022/01/10 03:25:07;;;;;;;28.52;15.30;;;2.20;99.90;;;;;;5076906;28;20086;-60
2022/01/10 03:27:36;;;;;;;30.25;15.23;;;2.10;99.90;;;;;;5076001;28;20047;-60
2022/01/10 03:30:04;;;;;;;31.38;16.08;;;2.10;99.90;;;;;;5076061;28;20029;-60
2022/01/10 03:32:30;;;;;;;34.67;16.23;;;2.10;99.90;;;;;;5075951;28;20311;-60
2022/01/10 03:35:05;;;;;;;29.92;15.55;;;2.20;99.90;;;;;;5076232;28;20037;-59
2022/01/10 03:37:31;;;;;;;32.25;16.60;;;2.30;99.90;;;;;;5075776;28;20044;-58
2022/01/10 03:39:57;;;;;;;31.38;16.13;;;2.40;99.90;;;;;;5076955;28;20036;-58
2022/01/10 03:42:23;;;;;;;36.17;17.63;;;2.50;99.90;;;;;;5076708;28;20391;-59
2022/01/10 03:44:49;;;;;;;31.38;17.27;;;2.50;99.90;;;;;;5076151;28;20029;-59
2022/01/10 03:47:18;;;;;;;28.23;16.85;;;2.50;99.90;;;;;;5075779;28;20102;-59
2022/01/10 03:49:44;;;;;;;31.23;17.92;;;2.60;99.90;;;;;;5075835;28;20408;-59
2022/01/10 03:52:10;;;;;;;35.13;17.55;;;2.80;99.90;;;;;;5059129;28;20085;-59
2022/01/10 03:54:36;;;;;;;28.58;16.40;;;2.90;99.90;;;;;;5075811;28;20115;-59
2022/01/10 03:57:02;;;;;;;29.00;16.88;;;3.00;99.90;;;;;;5075789;28;20137;-59
2022/01/10 03:59:28;;;;;;;31.02;17.17;;;3.00;99.90;;;;;;5075776;28;20093;-59
2022/01/10 04:01:54;;;;;;;32.63;17.27;;;3.10;99.90;;;;;;5076518;28;20039;-59
2022/01/10 04:04:20;;;;;;;25.05;16.17;;;3.20;99.90;;;;;;5075748;28;20036;-59
2022/01/10 04:06:46;;;;;;;31.65;17.23;;;3.30;99.90;;;;;;5042488;28;20051;-59
2022/01/10 04:09:13;;;;;;;34.72;17.85;;;3.20;99.90;;;;;;5075658;28;20049;-58
2022/01/10 04:11:39;;;;;;;30.17;16.85;;;3.00;99.90;;;;;;5059102;28;20316;-60
2022/01/10 04:14:05;;;;;;;30.35;17.45;;;2.70;99.90;;;;;;5078612;28;20417;-58
2022/01/10 04:16:30;;;;;;;29.30;16.48;;;2.60;99.90;;;;;;5079670;28;20048;-58
2022/01/10 04:18:57;;;;;;;29.52;16.10;;;2.70;99.90;;;;;;5079588;28;20039;-58
2022/01/10 04:21:23;;;;;;;33.58;17.13;;;3.00;99.90;;;;;;5062981;28;20396;-58
2022/01/10 04:23:49;;;;;;;33.95;17.17;;;3.00;99.90;;;;;;5062904;28;20029;-58
2022/01/10 04:26:15;;;;;;;30.83;16.63;;;3.00;99.90;;;;;;5079385;28;20039;-59
2022/01/10 04:28:44;;;;;;;27.13;16.80;;;3.20;99.90;;;;;;5079095;28;20021;-58
2022/01/10 04:31:11;;;;;;;30.83;17.75;;;3.40;99.90;;;;;;5079993;28;20415;-58
2022/01/10 04:33:38;;;;;;;31.95;16.50;;;3.40;99.90;;;;;;5079229;28;20039;-59
2022/01/10 04:36:05;;;;;;;27.45;16.52;;;3.20;99.90;;;;;;5080292;28;20039;-59
2022/01/10 04:38:31;;;;;;;30.08;16.45;;;3.00;99.90;;;;;;5079238;28;20443;-59
2022/01/10 04:40:57;;;;;;;28.80;16.55;;;2.90;99.90;;;;;;5079160;28;20062;-59
2022/01/10 04:43:23;;;;;;;28.60;16.13;;;3.00;99.90;;;;;;5079965;28;20036;-59
2022/01/10 04:45:49;;;;;;;32.28;16.92;;;3.10;99.90;;;;;;5080032;28;20032;-59
2022/01/10 04:48:17;;;;;;;27.48;17.50;;;3.30;99.90;;;;;;5079083;28;20040;-59
2022/01/10 04:51:11;;;;;;;31.88;17.20;;;3.40;99.90;;;;;;5078943;28;20025;-59
2022/01/10 04:53:34;;;;;;;33.05;17.45;;;3.60;99.90;;;;;;5079636;28;20028;-59
2022/01/10 04:56:00;;;;;;;29.48;17.90;;;3.70;99.90;;;;;;5079879;28;20037;-59
2022/01/10 04:58:26;;;;;;;33.85;17.70;;;3.70;99.90;;;;;;5078769;28;20085;-59
2022/01/10 05:00:54;;;;;;;29.25;19.02;;;3.70;99.90;;;;;;5078825;28;20028;-59
2022/01/10 05:03:22;;;;;;;29.52;17.98;;;3.80;99.90;;;;;;5078683;28;20048;-59
2022/01/10 05:05:53;;;;;;;33.28;17.80;;;3.80;99.90;;;;;;5078518;28;20033;-59
2022/01/10 05:08:20;;;;;;;29.92;17.42;;;3.80;99.90;;;;;;5078684;28;20075;-59
2022/01/10 05:10:51;;;;;;;35.55;17.05;;;3.90;99.90;;;;;;5078824;28;20086;-59
2022/01/10 05:13:17;;;;;;;34.05;17.40;;;3.80;99.90;;;;;;5062223;28;20554;-59
2022/01/10 05:15:46;;;;;;;28.20;16.10;;;3.80;99.90;;;;;;5078550;28;20403;-59
2022/01/10 05:18:13;;;;;;;36.75;17.85;;;3.70;99.90;;;;;;5078662;28;20356;-59
2022/01/10 05:20:39;;;;;;;30.60;17.02;;;3.70;99.90;;;;;;5079349;28;20043;-59
2022/01/10 05:23:05;;;;;;;31.05;17.33;;;3.70;99.90;;;;;;5079223;28;20082;-59
2022/01/10 05:25:36;;;;;;;29.00;17.33;;;3.70;99.90;;;;;;5078466;28;20344;-59
2022/01/10 05:28:05;;;;;;;30.10;17.30;;;3.70;99.90;;;;;;5078429;28;20111;-59
2022/01/10 05:30:31;;;;;;;31.63;17.02;;;3.80;99.90;;;;;;5078367;28;20432;-60
2022/01/10 05:32:57;;;;;;;35.13;17.45;;;3.80;99.90;;;;;;5078310;28;20095;-60
2022/01/10 05:35:31;;;;;;;28.98;16.25;;;3.80;99.90;;;;;;5078257;28;20319;-59
2022/01/10 05:37:57;;;;;;;34.17;17.58;;;3.70;99.90;;;;;;5078794;28;20044;-59
2022/01/10 05:40:23;;;;;;;29.52;16.65;;;3.70;99.90;;;;;;5078100;28;20032;-59
2022/01/10 05:42:49;;;;;;;33.00;16.77;;;3.70;99.90;;;;;;5078078;28;20028;-60
2022/01/10 05:45:15;;;;;;;25.65;15.00;;;3.50;99.90;;;;;;5061428;28;20060;-59
2022/01/10 05:47:44;;;;;;;26.50;14.63;;;3.40;99.90;;;;;;5061382;28;20029;-59
2022/01/10 05:50:13;;;;;;;26.50;14.57;;;3.20;99.90;;;;;;5077786;28;20060;-60
2022/01/10 05:52:44;;;;;;;24.55;14.82;;;2.80;99.90;;;;;;5062012;28;20063;-60
2022/01/10 05:55:11;;;;;;;24.42;14.85;;;2.60;99.90;;;;;;5077922;28;20029;-60
2022/01/10 05:57:40;;;;;;;30.85;15.02;;;2.50;99.90;;;;;;5077939;28;20035;-60
2022/01/10 06:00:07;;;;;;;26.73;14.95;;;2.70;99.90;;;;;;5077926;28;20342;-60
2022/01/10 06:02:40;;;;;;;26.25;15.27;;;2.80;99.90;;;;;;5078530;28;20025;-60
2022/01/10 06:05:09;;;;;;;28.35;15.77;;;2.90;99.90;;;;;;5077549;28;20395;-60
2022/01/10 06:07:42;;;;;;;29.98;15.38;;;3.10;99.90;;;;;;5077629;28;20063;-57
2022/01/10 06:10:09;;;;;;;28.23;15.65;;;3.20;99.90;;;;;;5077551;28;20020;-60
2022/01/10 06:12:34;;;;;;;21.80;14.45;;;3.20;99.90;;;;;;5077473;28;20124;-58
2022/01/10 06:15:00;;;;;;;24.95;14.63;;;3.00;99.90;;;;;;5060758;28;20444;-59
2022/01/10 06:17:27;;;;;;;25.35;14.25;;;2.80;99.90;;;;;;5077471;28;20036;-59
2022/01/10 06:19:53;;;;;;;26.85;14.48;;;2.70;99.90;;;;;;5077622;28;20024;-59
2022/01/10 06:22:19;;;;;;;24.35;14.45;;;2.60;99.90;;;;;;5060608;28;20043;-59
2022/01/10 06:24:45;;;;;;;24.65;14.23;;;2.50;99.90;;;;;;5077303;28;20036;-59
2022/01/10 06:27:12;;;;;;;28.73;14.43;;;2.50;99.90;;;;;;5077338;28;20123;-59
2022/01/10 06:29:38;;;;;;;29.58;14.90;;;2.50;99.90;;;;;;5077113;28;20453;-59
2022/01/10 06:32:05;;;;;;;30.55;14.90;;;2.60;99.90;;;;;;5077113;28;20033;-60
2022/01/10 06:34:31;;;;;;;32.60;15.73;;;2.60;99.90;;;;;;5077051;28;20048;-59
2022/01/10 06:36:59;;;;;;;26.30;14.23;;;2.60;99.90;;;;;;5077040;28;20424;-59
2022/01/10 06:39:25;;;;;;;23.60;14.13;;;2.60;99.90;;;;;;5076888;28;20036;-60
2022/01/10 06:41:52;;;;;;;32.28;15.60;;;2.60;99.90;;;;;;5076857;28;20072;-60
2022/01/10 06:44:19;;;;;;;27.85;15.00;;;2.60;99.90;;;;;;5077619;28;20111;-60
2022/01/10 06:46:45;;;;;;;33.78;16.10;;;2.70;99.90;;;;;;5077554;28;20123;-60
2022/01/10 06:49:12;;;;;;;31.10;15.85;;;2.80;99.90;;;;;;5076813;28;20043;-60
2022/01/10 06:51:37;;;;;;;32.10;16.50;;;2.90;99.90;;;;;;5077498;28;20029;-60
2022/01/10 06:54:03;;;;;;;27.92;15.77;;;3.00;99.90;;;;;;5076771;28;20388;-59
2022/01/10 06:56:30;;;;;;;33.28;16.63;;;2.90;99.90;;;;;;5076685;28;20040;-58
2022/01/10 06:58:57;;;;;;;27.88;16.75;;;2.90;99.90;;;;;;5076539;28;20098;-58
2022/01/10 07:01:31;;;;;;;29.45;16.15;;;2.90;99.90;;;;;;5076540;28;20040;-58
2022/01/10 07:03:59;;;;;;;28.10;16.13;;;2.80;99.90;;;;;;5076449;28;20032;-59
2022/01/10 07:06:25;;;;;;;29.05;16.27;;;2.90;99.90;;;;;;5043298;28;20044;-59
2022/01/10 07:08:53;;;;;;;29.10;15.45;;;2.90;99.90;;;;;;5076357;28;20125;-59
2022/01/10 07:11:26;;;;;;;34.17;16.42;;;2.90;99.90;;;;;;5060974;28;20033;-59
2022/01/10 07:13:53;;;;;;;32.65;17.45;;;3.00;99.90;;;;;;5076261;28;20082;-59
2022/01/10 07:16:20;;;;;;;33.63;17.35;;;2.90;99.90;;;;;;5076765;28;20098;-59
2022/01/10 07:18:52;;;;;;;28.45;16.17;;;2.90;99.90;;;;;;5076239;28;20036;-59
2022/01/10 07:21:27;;;;;;;36.92;17.92;;;3.00;99.90;;;;;;5076179;28;20123;-58
2022/01/10 07:23:53;;;;;;;32.28;15.50;;;3.00;99.90;;;;;;5076120;28;20131;-60
2022/01/10 07:26:19;;;;;;;29.17;16.15;;;4.80;99.90;;;;;;5077204;28;20411;-59
2022/01/10 07:28:45;;;;;;;33.40;16.48;;;5.90;99.90;;;;;;5076950;28;20021;-59
2022/01/10 07:31:11;;;;;;;29.15;15.73;;;5.20;99.90;;;;;;5076952;28;20099;-59
2022/01/10 07:33:37;;;;;;;27.52;14.45;;;4.80;99.90;;;;;;5076213;28;20116;-59
2022/01/10 07:36:03;;;;;;;25.05;15.15;;;4.40;99.90;;;;;;5059440;28;20173;-59
2022/01/10 07:38:35;;;;;;;27.38;16.50;;;4.10;99.90;;;;;;5076834;28;20143;-59
2022/01/10 07:41:03;;;;;;;31.67;16.83;;;4.00;99.90;;;;;;5077158;28;20035;-59
2022/01/10 07:43:29;;;;;;;33.75;16.05;;;3.90;99.90;;;;;;5076750;28;20047;-64
2022/01/10 07:45:57;;;;;;;28.08;17.17;;;3.90;99.90;;;;;;5075986;28;20399;-59
2022/01/10 07:48:24;;;;;;;30.80;17.80;;;4.60;99.90;;;;;;5076293;28;20029;-59
2022/01/10 07:50:50;;;;;;;30.92;16.67;;;4.10;99.90;;;;;;5076892;28;20386;-59
2022/01/10 07:53:16;;;;;;;25.00;16.27;;;3.60;99.90;;;;;;5076063;28;20127;-59
2022/01/10 07:55:42;;;;;;;26.70;16.02;;;3.20;99.90;;;;;;5076599;28;20098;-59
2022/01/10 07:58:07;;;;;;;29.20;15.95;;;3.00;99.90;;;;;;5075744;28;20072;-59
2022/01/10 08:00:33;;;;;;;30.42;17.38;;;3.00;99.90;;;;;;5076617;28;20037;-59
2022/01/10 08:02:59;;;;;;;27.75;15.77;;;3.00;99.90;;;;;;5059767;28;20036;-59
2022/01/10 08:05:25;;;;;;;27.15;16.45;;;3.00;99.90;;;;;;5076807;28;20038;-59
2022/01/10 08:07:51;;;;;;;25.75;15.50;;;3.00;99.90;;;;;;5076569;28;20072;-59
2022/01/10 08:10:16;;;;;;;25.90;14.45;;;2.90;99.90;;;;;;5076456;28;20460;-59
2022/01/10 08:12:42;;;;;;;24.92;15.48;;;2.60;99.90;;;;;;5076567;28;20025;-59
2022/01/10 08:15:09;;;;;;;24.73;16.20;;;2.70;99.90;;;;;;5075952;28;20024;-59
2022/01/10 08:17:35;;;;;;;24.70;14.90;;;2.90;99.90;;;;;;5076631;28;20052;-59
2022/01/10 08:20:02;;;;;;;28.60;15.43;;;2.90;99.90;;;;;;5075846;28;20064;-59
2022/01/10 08:22:28;;;;;;;28.70;15.60;;;3.00;99.90;;;;;;5076408;28;20439;-60
2022/01/10 08:24:54;;;;;;;22.90;15.38;;;3.10;99.90;;;;;;5076452;28;20118;-59
2022/01/10 08:27:19;;;;;;;27.77;16.05;;;3.00;99.90;;;;;;5059503;28;20033;-59
2022/01/10 08:29:46;;;;;;;30.17;16.70;;;3.20;99.90;;;;;;5076467;28;20040;-59
2022/01/10 08:32:12;;;;;;;24.40;15.98;;;3.30;99.90;;;;;;5075807;28;20041;-59
2022/01/10 08:34:38;;;;;;;30.80;16.08;;;3.30;99.90;;;;;;5059111;28;20359;-59
2022/01/10 08:37:04;;;;;;;31.38;16.40;;;3.30;99.90;;;;;;5075469;28;20143;-59
2022/01/10 08:39:29;;;;;;;23.95;14.95;;;3.20;99.90;;;;;;5076420;28;20451;-59
2022/01/10 08:41:55;;;;;;;26.58;15.35;;;3.00;99.90;;;;;;5076367;28;20036;-59
2022/01/10 08:44:21;;;;;;;27.80;15.70;;;3.10;99.90;;;;;;5076422;28;20028;-59
2022/01/10 08:46:47;;;;;;;27.83;16.35;;;3.30;99.90;;;;;;5076214;28;20043;-59
2022/01/10 08:49:13;;;;;;;26.10;15.90;;;3.50;99.90;;;;;;5076232;28;20048;-60
2022/01/10 08:51:43;;;;;;;28.88;15.98;;;3.70;99.90;;;;;;5076644;28;20033;-59
2022/01/10 08:54:12;;;;;;;27.08;14.88;;;3.70;99.90;;;;;;5059768;28;20032;-59
2022/01/10 08:56:38;;;;;;;24.52;15.30;;;3.00;99.90;;;;;;5059271;28;20384;-59
2022/01/10 08:59:14;;;;;;;30.63;16.00;;;2.60;99.90;;;;;;5076352;28;20338;-59
2022/01/10 09:01:42;;;;;;;27.80;15.18;;;2.60;99.90;;;;;;5063732;28;20047;-59
2022/01/10 09:04:15;;;;;;;28.00;16.67;;;2.70;99.90;;;;;;5079033;28;20312;-59
2022/01/10 09:06:52;;;;;;;28.58;15.60;;;2.80;99.90;;;;;;5079109;28;20375;-59
2022/01/10 09:09:19;;;;;;;28.58;15.43;;;2.90;99.90;;;;;;5079719;28;20139;-59
2022/01/10 09:11:46;;;;;;;24.33;14.80;;;3.00;99.90;;;;;;5079578;28;20274;-59
2022/01/10 09:14:13;;;;;;;24.13;14.90;;;3.00;99.90;;;;;;5079545;28;20127;-59
2022/01/10 09:16:39;;;;;;;26.67;15.20;;;3.00;99.90;;;;;;5078943;28;20028;-59
2022/01/10 09:19:05;;;;;;;25.45;14.10;;;2.90;99.90;;;;;;5079474;28;20032;-59
2022/01/10 09:21:32;;;;;;;25.05;14.90;;;2.80;99.90;;;;;;5078726;28;20041;-59
2022/01/10 09:23:59;;;;;;;27.83;14.90;;;2.60;99.90;;;;;;5079505;28;20319;-59
2022/01/10 09:26:24;;;;;;;26.23;15.13;;;2.40;99.90;;;;;;5079456;28;20033;-59
2022/01/10 09:28:51;;;;;;;27.17;15.38;;;2.40;99.90;;;;;;5079305;28;20024;-59
2022/01/10 09:31:17;;;;;;;27.70;15.13;;;2.50;99.90;;;;;;5079549;28;20406;-59
2022/01/10 09:33:47;;;;;;;25.23;15.57;;;2.70;99.90;;;;;;5078434;28;20052;-60
2022/01/10 09:36:13;;;;;;;25.75;16.17;;;3.00;99.90;;;;;;5079479;28;20311;-60
2022/01/10 09:38:39;;;;;;;29.08;16.70;;;3.20;99.90;;;;;;5078087;28;20048;-59
2022/01/10 09:41:05;;;;;;;30.17;17.10;;;3.10;99.90;;;;;;5079304;28;20036;-59
2022/01/10 09:43:31;;;;;;;27.67;16.70;;;3.00;99.90;;;;;;5078948;28;20364;-59
2022/01/10 09:45:57;;;;;;;29.13;16.42;;;2.80;99.90;;;;;;5078897;28;20366;-59
2022/01/10 09:48:23;;;;;;;30.13;16.98;;;2.90;99.90;;;;;;5079170;28;20025;-59
2022/01/10 09:50:49;;;;;;;29.23;17.48;;;3.40;99.90;;;;;;5078882;28;20043;-60
2022/01/10 09:53:17;;;;;;;30.65;16.48;;;3.60;99.90;;;;;;5078084;28;20016;-59
2022/01/10 09:55:43;;;;;;;29.65;16.98;;;3.90;99.90;;;;;;5079146;28;20032;-59
2022/01/10 09:58:09;;;;;;;30.58;17.05;;;3.50;99.90;;;;;;5079012;28;20036;-59
2022/01/10 10:00:35;;;;;;;29.27;17.35;;;3.00;99.90;;;;;;5078637;28;20025;-59
2022/01/10 10:03:04;;;;;;;27.65;17.25;;;3.10;99.90;;;;;;5077929;28;20047;-59
2022/01/10 10:05:30;;;;;;;29.73;17.40;;;3.50;99.90;;;;;;5078437;28;20064;-59
2022/01/10 10:07:56;;;;;;;32.00;18.25;;;3.40;99.90;;;;;;5078812;28;20330;-59
2022/01/10 10:10:23;;;;;;;25.58;15.75;;;3.40;99.90;;;;;;5077224;28;20032;-59
2022/01/10 10:12:50;;;;;;;28.30;15.88;;;3.40;99.90;;;;;;5078821;28;20396;-60
2022/01/10 10:15:20;;;;;;;27.88;16.67;;;3.30;99.90;;;;;;5077699;28;20043;-59
2022/01/10 10:17:46;;;;;;;27.88;16.45;;;3.40;99.90;;;;;;5078353;28;20308;-59
2022/01/10 10:20:21;;;;;;;30.17;17.30;;;3.40;99.90;;;;;;5078257;28;20028;-59
2022/01/10 10:22:49;;;;;;;31.25;17.30;;;3.50;99.90;;;;;;5078209;28;20096;-59
2022/01/10 10:25:15;;;;;;;28.58;16.48;;;3.70;99.90;;;;;;5078303;28;20028;-59
2022/01/10 10:27:46;;;;;;;28.25;16.63;;;3.90;99.90;;;;;;5077922;28;20086;-60
2022/01/10 10:30:13;;;;;;;27.08;16.45;;;3.90;99.90;;;;;;5078024;28;20032;-59
2022/01/10 10:32:39;;;;;;;26.02;15.30;;;3.90;99.90;;;;;;5077605;28;20074;-59
2022/01/10 10:35:06;;;;;;;24.20;15.65;;;3.60;99.90;;;;;;5078041;28;20033;-58
2022/01/10 10:37:37;;;;;;;26.77;15.38;;;3.60;99.90;;;;;;5076983;28;20048;-58
2022/01/10 10:40:07;;;;;;;26.23;15.73;;;3.40;99.90;;;;;;5076991;28;20025;-58
2022/01/10 10:42:34;;;;;;;25.55;14.65;;;3.50;99.90;;;;;;5077864;28;20277;-58
2022/01/10 10:45:03;;;;;;;26.58;15.30;;;3.50;99.90;;;;;;5078268;28;20021;-59
2022/01/10 10:47:29;;;;;;;26.95;15.95;;;3.60;99.90;;;;;;5076802;28;20024;-59
2022/01/10 10:49:59;;;;;;;25.33;14.80;;;3.80;99.90;;;;;;5077632;28;20024;-59
2022/01/10 10:52:31;;;;;;;29.73;16.80;;;4.10;99.90;;;;;;5077679;28;20021;-59
2022/01/10 10:55:05;;;;;;;27.80;16.50;;;4.30;99.90;;;;;;5077686;28;20290;-58
2022/01/10 10:57:32;;;;;;;25.98;16.13;;;4.20;99.90;;;;;;5077597;28;20032;-60
2022/01/10 10:59:59;;;;;;;27.80;16.42;;;4.20;99.90;;;;;;5077334;28;20028;-58
2022/01/10 11:02:26;;;;;;;29.42;16.70;;;3.90;99.90;;;;;;5076548;28;20396;-58
2022/01/10 11:04:52;;;;;;;27.88;16.15;;;3.80;99.90;;;;;;5077271;28;20370;-58
2022/01/10 11:07:22;;;;;;;28.85;17.05;;;3.70;99.90;;;;;;5059644;28;20052;-59
2022/01/10 11:09:49;;;;;;;28.35;17.05;;;3.70;99.90;;;;;;5077213;28;20039;-59
2022/01/10 11:12:17;;;;;;;26.30;15.93;;;3.90;99.90;;;;;;5077106;28;20323;-59
2022/01/10 11:14:43;;;;;;;29.83;16.80;;;3.60;99.90;;;;;;5077385;28;20404;-60
2022/01/10 11:17:20;;;;;;;26.25;16.00;;;3.90;99.90;;;;;;5059735;28;20025;-60
2022/01/10 11:20:13;;;;;;;24.15;15.73;;;3.90;99.90;;;;;;5077079;28;20090;-60
2022/01/10 11:22:42;;;;;;;24.95;15.30;;;3.70;99.90;;;;;;5076349;28;20116;-60
2022/01/10 11:25:21;;;;;;;24.50;15.38;;;3.80;99.90;;;;;;5077058;28;20028;-60
2022/01/10 11:27:48;;;;;;;24.83;14.45;;;4.20;99.90;;;;;;5077048;28;20103;-60
2022/01/10 11:30:44;;;;;;;25.98;15.13;;;4.50;99.90;;;;;;5076243;28;20032;-60
2022/01/10 11:33:17;;;;;;;28.08;14.57;;;4.90;99.90;;;;;;5077425;28;20033;-60
2022/01/10 11:35:45;;;;;;;24.80;15.13;;;5.30;99.90;;;;;;5076314;28;20123;-60
2022/01/10 11:38:30;;;;;;;20.35;13.68;;;5.30;99.90;;;;;;5076871;28;20412;-60
2022/01/10 11:41:11;;;;;;;23.70;14.35;;;5.50;99.90;;;;;;5077537;28;20036;-60
2022/01/10 11:43:52;;;;;;;21.13;13.52;;;5.50;99.90;;;;;;5076263;28;20075;-58
2022/01/10 11:46:23;;;;;;;20.58;13.63;;;5.90;99.90;;;;;;5076787;28;20094;-59
2022/01/10 11:48:55;;;;;;;21.67;13.98;;;5.90;99.90;;;;;;5076175;28;20028;-59
2022/01/10 11:51:23;;;;;;;25.13;13.90;;;5.40;99.90;;;;;;5076563;28;20066;-59
2022/01/10 11:53:53;;;;;;;21.55;13.07;;;5.70;99.90;;;;;;5075893;28;20036;-59
2022/01/10 11:56:31;;;;;;;25.52;13.63;;;5.90;99.90;;;;;;5043019;28;20040;-58
2022/01/10 11:59:17;;;;;;;22.02;14.05;;;6.00;99.90;;;;;;5076691;28;20024;-59
2022/01/10 12:01:59;;;;;;;20.50;13.57;;;6.20;99.90;;;;;;5076568;28;20043;-59
2022/01/10 12:04:28;;;;;;;24.35;14.00;;;6.40;99.90;;;;;;5076778;28;20037;-60
2022/01/10 12:06:54;;;;;;;23.58;14.13;;;6.50;99.90;;;;;;5076520;28;20025;-60
2022/01/10 12:09:21;;;;;;;28.90;17.20;;;6.20;99.90;;;;;;5076698;28;20028;-59
2022/01/10 12:11:49;;;;;;;32.08;18.70;;;5.60;99.90;;;;;;5076621;28;20020;-60
2022/01/10 12:14:15;;;;;;;33.95;19.05;;;5.40;99.90;;;;;;5076598;28;20051;-60
2022/01/10 12:16:42;;;;;;;37.50;21.27;;;4.80;99.90;;;;;;5075794;28;20402;-59
2022/01/10 12:19:09;;;;;;;50.15;26.70;;;4.50;99.90;;;;;;5075717;28;20059;-60
2022/01/10 12:21:35;;;;;;;53.80;27.08;;;4.10;99.90;;;;;;5076538;28;20392;-60
2022/01/10 12:24:02;;;;;;;57.45;28.98;;;3.60;99.90;;;;;;5076462;28;20031;-60
2022/01/10 12:26:28;;;;;;;60.20;29.92;;;3.50;99.90;;;;;;5076357;28;20032;-61
2022/01/10 12:28:57;;;;;;;59.13;29.27;;;3.50;99.90;;;;;;5075606;28;20113;-59
2022/01/10 12:31:25;;;;;;;55.05;29.40;;;3.70;99.90;;;;;;5075581;28;20034;-59
2022/01/10 12:33:52;;;;;;;60.00;31.42;;;4.00;99.90;;;;;;5077236;28;20063;-59
2022/01/10 12:36:20;;;;;;;54.03;28.83;;;4.00;99.90;;;;;;5080321;28;20036;-59
2022/01/10 12:38:57;;;;;;;53.95;28.40;;;3.90;99.90;;;;;;5079948;28;20061;-59
2022/01/10 12:41:23;;;;;;;56.50;27.75;;;3.80;99.90;;;;;;5080216;28;20396;-59
2022/01/10 12:43:49;;;;;;;52.08;27.98;;;3.60;99.90;;;;;;5079132;28;20028;-59
2022/01/10 12:46:17;;;;;;;51.63;27.60;;;3.60;99.90;;;;;;5079951;28;20047;-60
2022/01/10 12:48:46;;;;;;;49.22;24.00;;;3.30;99.90;;;;;;5079962;28;20111;-59